sensor_id;sensor_type;location;lat;lon;timestamp;pressure;altitude;pressure_sealevel;temperature;humidity
50250;BME280;36133;42.522;27.456;2023-03-22T00:00:50;100888.25;;;14.52;53.94
50250;BME280;36133;42.522;27.456;2023-03-22T00:03:15;100870.16;;;13.78;55.17
50250;BME280;36133;42.522;27.456;2023-03-22T00:05:41;101117.47;;;15.78;53.85
50250;BME280;36133;42.522;27.456;2023-03-22T00:08:08;100639.00;;;11.78;56.12
50250;BME280;36133;42.522;27.456;2023-03-22T00:10:35;100951.66;;;14.04;55.73
50250;BME280;36133;42.522;27.456;2023-03-22T00:13:01;100619.50;;;11.33;57.46
50250;BME280;36133;42.522;27.456;2023-03-22T00:15:27;101068.63;;;14.10;57.49
50250;BME280;36133;42.522;27.456;2023-03-22T00:17:55;101167.72;;;15.42;55.80
50250;BME280;36133;42.522;27.456;2023-03-22T00:20:21;100895.25;;;14.00;54.80
50250;BME280;36133;42.522;27.456;2023-03-22T00:22:48;100900.34;;;14.36;54.40
50250;BME280;36133;42.522;27.456;2023-03-22T00:25:14;101156.84;;;15.69;54.93
50250;BME280;36133;42.522;27.456;2023-03-22T00:27:40;101133.91;;;14.77;56.41
50250;BME280;36133;42.522;27.456;2023-03-22T00:30:06;101026.19;;;13.26;58.63
50250;BME280;36133;42.522;27.456;2023-03-22T00:32:36;101168.09;;;14.17;59.19
50250;BME280;36133;42.522;27.456;2023-03-22T00:35:04;101064.97;;;13.83;58.93
50250;BME280;36133;42.522;27.456;2023-03-22T00:37:30;101131.03;;;14.92;56.81
50250;BME280;36133;42.522;27.456;2023-03-22T00:40:02;101141.94;;;14.44;58.14
50250;BME280;36133;42.522;27.456;2023-03-22T00:42:29;100939.31;;;12.85;58.37
50250;BME280;36133;42.522;27.456;2023-03-22T00:44:55;101057.53;;;13.63;59.11
50250;BME280;36133;42.522;27.456;2023-03-22T00:47:21;101120.81;;;14.05;58.56
50250;BME280;36133;42.522;27.456;2023-03-22T00:49:47;101162.66;;;14.17;59.60
50250;BME280;36133;42.522;27.456;2023-03-22T00:52:13;101122.38;;;13.86;59.47
50250;BME280;36133;42.522;27.456;2023-03-22T00:54:41;101152.88;;;13.88;60.41
50250;BME280;36133;42.522;27.456;2023-03-22T00:57:10;101129.44;;;13.81;59.74
50250;BME280;36133;42.522;27.456;2023-03-22T00:59:37;101150.13;;;13.11;62.32
50250;BME280;36133;42.522;27.456;2023-03-22T01:02:06;100553.97;;;9.95;61.25
50250;BME280;36133;42.522;27.456;2023-03-22T01:04:32;100609.16;;;10.22;61.34
50250;BME280;36133;42.522;27.456;2023-03-22T01:06:59;101137.34;;;13.26;61.73
50250;BME280;36133;42.522;27.456;2023-03-22T01:09:31;101022.47;;;12.63;62.36
50250;BME280;36133;42.522;27.456;2023-03-22T01:11:59;100912.59;;;12.32;61.42
50250;BME280;36133;42.522;27.456;2023-03-22T01:14:27;101116.28;;;13.07;62.44
50250;BME280;36133;42.522;27.456;2023-03-22T01:16:53;101009.94;;;12.83;61.65
50250;BME280;36133;42.522;27.456;2023-03-22T01:19:22;100686.06;;;10.62;62.47
50250;BME280;36133;42.522;27.456;2023-03-22T01:21:48;100909.34;;;11.65;63.44
50250;BME280;36133;42.522;27.456;2023-03-22T01:24:14;100837.81;;;11.31;62.67
50250;BME280;36133;42.522;27.456;2023-03-22T01:26:39;101117.78;;;13.31;62.88
50250;BME280;36133;42.522;27.456;2023-03-22T01:29:05;101042.81;;;12.74;62.48
50250;BME280;36133;42.522;27.456;2023-03-22T01:31:30;101088.47;;;13.69;60.87
50250;BME280;36133;42.522;27.456;2023-03-22T01:33:56;101111.00;;;13.20;62.71
50250;BME280;36133;42.522;27.456;2023-03-22T01:36:22;101051.84;;;12.09;65.03
50250;BME280;36133;42.522;27.456;2023-03-22T01:38:47;101065.28;;;12.17;65.60
50250;BME280;36133;42.522;27.456;2023-03-22T01:41:15;100917.59;;;10.98;66.17
50250;BME280;36133;42.522;27.456;2023-03-22T01:43:43;101118.03;;;13.14;63.60
50250;BME280;36133;42.522;27.456;2023-03-22T01:46:09;101105.63;;;12.84;64.29
50250;BME280;36133;42.522;27.456;2023-03-22T01:48:39;101080.47;;;12.69;64.31
50250;BME280;36133;42.522;27.456;2023-03-22T01:51:14;101116.88;;;13.02;64.86
50250;BME280;36133;42.522;27.456;2023-03-22T01:53:49;100988.22;;;12.77;63.23
50250;BME280;36133;42.522;27.456;2023-03-22T01:56:18;100982.81;;;12.77;62.46
50250;BME280;36133;42.522;27.456;2023-03-22T01:58:46;101085.25;;;13.09;63.64
50250;BME280;36133;42.522;27.456;2023-03-22T02:01:13;100909.38;;;12.22;63.21
50250;BME280;36133;42.522;27.456;2023-03-22T02:06:22;100845.91;;;11.82;62.25
50250;BME280;36133;42.522;27.456;2023-03-22T02:08:48;101012.53;;;12.91;62.72
50250;BME280;36133;42.522;27.456;2023-03-22T02:11:23;100933.84;;;11.27;65.53
50250;BME280;36133;42.522;27.456;2023-03-22T02:17:07;101121.00;;;12.77;65.32
50250;BME280;36133;42.522;27.456;2023-03-22T02:20:17;101024.28;;;12.77;64.01
50250;BME280;36133;42.522;27.456;2023-03-22T02:25:20;101103.31;;;13.45;64.27
50250;BME280;36133;42.522;27.456;2023-03-22T02:57:44;101089.72;;;12.59;65.80
50250;BME280;36133;42.522;27.456;2023-03-22T03:00:04;100770.66;;;10.25;67.82
50250;BME280;36133;42.522;27.456;2023-03-22T03:02:42;100853.59;;;10.83;67.20
50250;BME280;36133;42.522;27.456;2023-03-22T03:05:10;101040.97;;;11.87;67.81
50250;BME280;36133;42.522;27.456;2023-03-22T03:07:37;100777.09;;;10.39;67.03
50250;BME280;36133;42.522;27.456;2023-03-22T03:10:06;100834.31;;;10.86;67.09
50250;BME280;36133;42.522;27.456;2023-03-22T03:12:32;100809.50;;;10.39;67.97
50250;BME280;36133;42.522;27.456;2023-03-22T03:15:08;101075.09;;;12.18;67.17
50250;BME280;36133;42.522;27.456;2023-03-22T03:17:56;100775.94;;;10.18;68.14
50250;BME280;36133;42.522;27.456;2023-03-22T03:23:12;100741.81;;;9.88;68.43
50250;BME280;36133;42.522;27.456;2023-03-22T03:28:32;101016.41;;;11.74;68.42
50250;BME280;36133;42.522;27.456;2023-03-22T03:33:50;100979.28;;;11.09;69.83
50250;BME280;36133;42.522;27.456;2023-03-22T03:36:19;101064.81;;;11.69;69.40
50250;BME280;36133;42.522;27.456;2023-03-22T03:38:49;101053.19;;;11.83;69.21
50250;BME280;36133;42.522;27.456;2023-03-22T03:41:22;100999.63;;;11.49;68.97
50250;BME280;36133;42.522;27.456;2023-03-22T03:43:50;100731.97;;;9.57;69.31
50250;BME280;36133;42.522;27.456;2023-03-22T03:46:17;100946.97;;;11.30;68.61
50250;BME280;36133;42.522;27.456;2023-03-22T03:48:46;100808.03;;;10.95;66.71
50250;BME280;36133;42.522;27.456;2023-03-22T03:51:13;100799.53;;;11.13;65.51
50250;BME280;36133;42.522;27.456;2023-03-22T03:53:38;101043.13;;;11.92;67.36
50250;BME280;36133;42.522;27.456;2023-03-22T03:56:04;101063.06;;;12.06;67.26
50250;BME280;36133;42.522;27.456;2023-03-22T03:58:33;100634.41;;;9.91;66.10
50250;BME280;36133;42.522;27.456;2023-03-22T04:00:58;100855.56;;;11.04;66.37
50250;BME280;36133;42.522;27.456;2023-03-22T04:03:24;100516.19;;;8.84;67.18
50250;BME280;36133;42.522;27.456;2023-03-22T04:05:50;100794.34;;;10.52;67.43
50250;BME280;36133;42.522;27.456;2023-03-22T04:08:15;101081.16;;;12.05;67.57
50250;BME280;36133;42.522;27.456;2023-03-22T04:10:41;101064.00;;;11.83;67.60
50250;BME280;36133;42.522;27.456;2023-03-22T04:13:07;100955.44;;;11.57;66.06
50250;BME280;36133;42.522;27.456;2023-03-22T04:15:32;101088.44;;;12.19;66.47
50250;BME280;36133;42.522;27.456;2023-03-22T04:17:58;100766.34;;;10.16;66.45
50250;BME280;36133;42.522;27.456;2023-03-22T04:20:24;100795.25;;;10.89;65.05
50250;BME280;36133;42.522;27.456;2023-03-22T04:22:50;101014.16;;;12.07;65.89
50250;BME280;36133;42.522;27.456;2023-03-22T04:25:17;100909.88;;;11.39;66.03
50250;BME280;36133;42.522;27.456;2023-03-22T04:27:44;100785.41;;;10.14;67.58
50250;BME280;36133;42.522;27.456;2023-03-22T04:30:13;100704.53;;;9.91;66.68
50250;BME280;36133;42.522;27.456;2023-03-22T04:32:46;100762.97;;;10.37;66.99
50250;BME280;36133;42.522;27.456;2023-03-22T04:35:12;100821.97;;;10.40;67.40
50250;BME280;36133;42.522;27.456;2023-03-22T04:37:38;101063.72;;;12.08;66.93
50250;BME280;36133;42.522;27.456;2023-03-22T04:40:04;101116.56;;;12.54;65.97
50250;BME280;36133;42.522;27.456;2023-03-22T04:42:33;100826.53;;;11.13;64.18
50250;BME280;36133;42.522;27.456;2023-03-22T04:44:58;101132.03;;;12.75;65.78
50250;BME280;36133;42.522;27.456;2023-03-22T04:47:24;101140.34;;;12.95;64.04
50250;BME280;36133;42.522;27.456;2023-03-22T04:49:50;100927.44;;;11.50;64.27
50250;BME280;36133;42.522;27.456;2023-03-22T04:52:16;100975.59;;;12.41;63.05
50250;BME280;36133;42.522;27.456;2023-03-22T04:54:41;101160.75;;;14.11;60.73
50250;BME280;36133;42.522;27.456;2023-03-22T04:57:07;101044.03;;;13.42;60.93
50250;BME280;36133;42.522;27.456;2023-03-22T04:59:32;101080.59;;;13.46;61.10
50250;BME280;36133;42.522;27.456;2023-03-22T05:01:58;101086.81;;;12.76;62.99
50250;BME280;36133;42.522;27.456;2023-03-22T05:04:24;100848.88;;;11.87;61.28
50250;BME280;36133;42.522;27.456;2023-03-22T05:06:53;101172.28;;;13.57;61.75
50250;BME280;36133;42.522;27.456;2023-03-22T05:09:19;100991.75;;;12.13;63.13
50250;BME280;36133;42.522;27.456;2023-03-22T05:11:48;101134.66;;;12.69;63.67
50250;BME280;36133;42.522;27.456;2023-03-22T05:14:13;100947.44;;;11.19;64.97
50250;BME280;36133;42.522;27.456;2023-03-22T05:16:39;100880.59;;;11.79;61.73
50250;BME280;36133;42.522;27.456;2023-03-22T05:19:08;101031.41;;;13.06;60.92
50250;BME280;36133;42.522;27.456;2023-03-22T05:21:39;101185.97;;;14.74;59.21
50250;BME280;36133;42.522;27.456;2023-03-22T05:24:06;100734.25;;;10.95;61.69
50250;BME280;36133;42.522;27.456;2023-03-22T05:26:32;100667.59;;;10.80;59.92
50250;BME280;36133;42.522;27.456;2023-03-22T05:28:58;100953.22;;;12.54;60.78
50250;BME280;36133;42.522;27.456;2023-03-22T05:31:24;100696.69;;;11.00;61.50
50250;BME280;36133;42.522;27.456;2023-03-22T05:33:53;100995.75;;;12.81;61.51
50250;BME280;36133;42.522;27.456;2023-03-22T05:36:20;101021.38;;;12.57;61.95
50250;BME280;36133;42.522;27.456;2023-03-22T05:38:47;101169.22;;;12.67;64.54
50250;BME280;36133;42.522;27.456;2023-03-22T05:41:13;100982.09;;;11.89;64.08
50250;BME280;36133;42.522;27.456;2023-03-22T05:43:39;101200.06;;;13.38;63.03
50250;BME280;36133;42.522;27.456;2023-03-22T05:46:10;101067.97;;;12.89;62.81
50250;BME280;36133;42.522;27.456;2023-03-22T05:48:37;101150.56;;;13.85;60.77
50250;BME280;36133;42.522;27.456;2023-03-22T05:51:11;100973.47;;;13.70;59.03
50250;BME280;36133;42.522;27.456;2023-03-22T05:53:42;101204.78;;;14.76;58.74
50250;BME280;36133;42.522;27.456;2023-03-22T05:56:09;101149.13;;;14.24;60.06
50250;BME280;36133;42.522;27.456;2023-03-22T05:58:35;101211.31;;;14.12;60.77
50250;BME280;36133;42.522;27.456;2023-03-22T06:01:05;101100.50;;;14.35;58.36
50250;BME280;36133;42.522;27.456;2023-03-22T06:03:32;101157.25;;;15.52;56.22
50250;BME280;36133;42.522;27.456;2023-03-22T06:05:58;101066.00;;;15.04;55.59
50250;BME280;36133;42.522;27.456;2023-03-22T06:08:23;101214.88;;;15.76;56.06
50250;BME280;36133;42.522;27.456;2023-03-22T06:10:50;101230.66;;;16.58;54.62
50250;BME280;36133;42.522;27.456;2023-03-22T06:13:19;101217.97;;;15.86;54.95
50250;BME280;36133;42.522;27.456;2023-03-22T06:15:45;101039.44;;;14.92;55.26
50250;BME280;36133;42.522;27.456;2023-03-22T06:18:11;101240.78;;;14.15;59.33
50250;BME280;36133;42.522;27.456;2023-03-22T06:20:37;101246.91;;;15.94;55.37
50250;BME280;36133;42.522;27.456;2023-03-22T06:23:03;101249.25;;;16.88;54.16
50250;BME280;36133;42.522;27.456;2023-03-22T06:25:29;101193.03;;;16.87;52.45
50250;BME280;36133;42.522;27.456;2023-03-22T06:27:55;101172.94;;;15.97;53.93
50250;BME280;36133;42.522;27.456;2023-03-22T06:30:20;101256.44;;;16.62;53.96
50250;BME280;36133;42.522;27.456;2023-03-22T06:32:46;101207.09;;;16.13;53.89
50250;BME280;36133;42.522;27.456;2023-03-22T06:35:16;101145.34;;;15.60;54.36
50250;BME280;36133;42.522;27.456;2023-03-22T06:37:42;101064.53;;;15.21;54.17
50250;BME280;36133;42.522;27.456;2023-03-22T06:40:08;101196.19;;;16.13;53.62
50250;BME280;36133;42.522;27.456;2023-03-22T06:42:34;101266.56;;;16.35;53.58
50250;BME280;36133;42.522;27.456;2023-03-22T06:44:59;101282.22;;;16.80;53.43
50250;BME280;36133;42.522;27.456;2023-03-22T06:47:26;101273.44;;;15.52;55.73
50250;BME280;36133;42.522;27.456;2023-03-22T06:49:51;101266.13;;;16.45;53.47
50250;BME280;36133;42.522;27.456;2023-03-22T06:52:17;101285.84;;;15.81;55.35
50250;BME280;36133;42.522;27.456;2023-03-22T06:54:43;101216.19;;;15.06;56.97
50250;BME280;36133;42.522;27.456;2023-03-22T06:57:08;101301.09;;;14.38;58.36
50250;BME280;36133;42.522;27.456;2023-03-22T06:59:34;101246.13;;;14.64;57.65
50250;BME280;36133;42.522;27.456;2023-03-22T07:01:59;101297.97;;;14.63;59.89
50250;BME280;36133;42.522;27.456;2023-03-22T07:04:25;101286.72;;;14.66;60.00
50250;BME280;36133;42.522;27.456;2023-03-22T07:06:52;101276.56;;;15.56;57.01
50250;BME280;36133;42.522;27.456;2023-03-22T07:09:17;101303.44;;;15.85;57.23
50250;BME280;36133;42.522;27.456;2023-03-22T07:11:43;101131.47;;;15.09;55.83
50250;BME280;36133;42.522;27.456;2023-03-22T07:14:09;101316.28;;;15.37;58.01
50250;BME280;36133;42.522;27.456;2023-03-22T07:16:35;101096.66;;;14.58;55.36
50250;BME280;36133;42.522;27.456;2023-03-22T07:19:01;100852.19;;;13.77;55.05
50250;BME280;36133;42.522;27.456;2023-03-22T07:21:29;100867.09;;;14.21;53.99
50250;BME280;36133;42.522;27.456;2023-03-22T07:23:55;100723.38;;;11.67;56.87
50250;BME280;36133;42.522;27.456;2023-03-22T07:26:21;101039.19;;;15.47;52.71
50250;BME280;36133;42.522;27.456;2023-03-22T07:28:46;101140.66;;;16.07;52.38
50250;BME280;36133;42.522;27.456;2023-03-22T07:31:14;101133.16;;;15.36;53.37
50250;BME280;36133;42.522;27.456;2023-03-22T07:33:40;101202.72;;;15.72;53.65
50250;BME280;36133;42.522;27.456;2023-03-22T07:36:09;101030.84;;;14.15;55.46
50250;BME280;36133;42.522;27.456;2023-03-22T07:38:38;100861.03;;;13.38;54.66
50250;BME280;36133;42.522;27.456;2023-03-22T07:41:04;100932.34;;;14.60;52.38
50250;BME280;36133;42.522;27.456;2023-03-22T07:43:30;101269.66;;;15.53;54.75
50250;BME280;36133;42.522;27.456;2023-03-22T07:46:04;101201.59;;;16.39;51.97
50250;BME280;36133;42.522;27.456;2023-03-22T07:48:30;101154.25;;;16.20;51.26
50250;BME280;36133;42.522;27.456;2023-03-22T07:51:03;101196.81;;;16.15;51.67
50250;BME280;36133;42.522;27.456;2023-03-22T07:53:32;101364.16;;;17.11;51.40
50250;BME280;36133;42.522;27.456;2023-03-22T07:55:58;100871.50;;;11.65;56.95
50250;BME280;36133;42.522;27.456;2023-03-22T07:58:27;101162.25;;;13.15;59.34
50250;BME280;36133;42.522;27.456;2023-03-22T08:00:52;101197.66;;;15.42;53.55
50250;BME280;36133;42.522;27.456;2023-03-22T08:03:18;101191.59;;;15.60;52.89
50250;BME280;36133;42.522;27.456;2023-03-22T08:05:50;100942.78;;;14.44;52.39
50250;BME280;36133;42.522;27.456;2023-03-22T08:08:16;101366.72;;;16.99;51.52
50250;BME280;36133;42.522;27.456;2023-03-22T08:10:50;101099.88;;;14.94;52.60
50250;BME280;36133;42.522;27.456;2023-03-22T08:13:18;100947.97;;;12.74;56.31
50250;BME280;36133;42.522;27.456;2023-03-22T08:15:49;101196.00;;;14.39;55.71
50250;BME280;36133;42.522;27.456;2023-03-22T08:18:26;100919.63;;;12.48;56.46
50250;BME280;36133;42.522;27.456;2023-03-22T08:20:58;100848.19;;;10.69;60.02
50250;BME280;36133;42.522;27.456;2023-03-22T08:23:27;100754.31;;;10.56;58.38
50250;BME280;36133;42.522;27.456;2023-03-22T08:25:56;101301.59;;;13.50;59.27
50250;BME280;36133;42.522;27.456;2023-03-22T08:28:22;101180.88;;;12.67;59.83
50250;BME280;36133;42.522;27.456;2023-03-22T08:30:48;101128.22;;;13.12;58.54
50250;BME280;36133;42.522;27.456;2023-03-22T08:33:14;101052.13;;;13.14;57.39
50250;BME280;36133;42.522;27.456;2023-03-22T08:35:43;101219.25;;;13.86;57.56
50250;BME280;36133;42.522;27.456;2023-03-22T08:38:09;100865.59;;;11.61;56.66
50250;BME280;36133;42.522;27.456;2023-03-22T08:40:35;101186.28;;;15.25;53.18
50250;BME280;36133;42.522;27.456;2023-03-22T08:43:08;101264.72;;;14.61;55.53
50250;BME280;36133;42.522;27.456;2023-03-22T08:45:42;101198.63;;;15.08;53.84
50250;BME280;36133;42.522;27.456;2023-03-22T08:48:08;101400.50;;;16.13;53.78
50250;BME280;36133;42.522;27.456;2023-03-22T08:50:34;101390.47;;;16.73;52.47
50250;BME280;36133;42.522;27.456;2023-03-22T08:53:03;101195.72;;;15.36;52.24
50250;BME280;36133;42.522;27.456;2023-03-22T08:55:30;100911.53;;;12.76;54.31
50250;BME280;36133;42.522;27.456;2023-03-22T08:57:56;101203.09;;;14.75;53.77
50250;BME280;36133;42.522;27.456;2023-03-22T09:00:23;100871.28;;;12.73;53.35
50250;BME280;36133;42.522;27.456;2023-03-22T09:02:49;101397.97;;;15.43;55.57
50250;BME280;36133;42.522;27.456;2023-03-22T09:05:15;101213.13;;;14.40;54.52
50250;BME280;36133;42.522;27.456;2023-03-22T09:07:40;100896.50;;;12.24;54.34
50250;BME280;36133;42.522;27.456;2023-03-22T09:10:24;101003.66;;;13.26;54.25
50250;BME280;36133;42.522;27.456;2023-03-22T09:12:52;101244.50;;;14.70;54.09
50250;BME280;36133;42.522;27.456;2023-03-22T09:15:20;101270.28;;;15.42;53.15
50250;BME280;36133;42.522;27.456;2023-03-22T09:17:46;100950.66;;;13.58;52.41
50250;BME280;36133;42.522;27.456;2023-03-22T09:20:26;101347.28;;;16.30;51.74
50250;BME280;36133;42.522;27.456;2023-03-22T09:22:52;100926.78;;;12.84;53.20
50250;BME280;36133;42.522;27.456;2023-03-22T09:25:18;101208.72;;;14.67;53.29
50250;BME280;36133;42.522;27.456;2023-03-22T09:27:44;101232.66;;;14.50;53.38
50250;BME280;36133;42.522;27.456;2023-03-22T09:30:13;100821.47;;;11.97;53.91
50250;BME280;36133;42.522;27.456;2023-03-22T09:32:41;100891.13;;;12.80;53.09
50250;BME280;36133;42.522;27.456;2023-03-22T09:35:07;101426.03;;;16.05;53.10
50250;BME280;36133;42.522;27.456;2023-03-22T09:37:47;100914.25;;;13.39;51.96
50250;BME280;36133;42.522;27.456;2023-03-22T09:40:20;100904.81;;;13.00;52.61
50250;BME280;36133;42.522;27.456;2023-03-22T09:42:51;101193.84;;;14.28;54.47
50250;BME280;36133;42.522;27.456;2023-03-22T09:45:42;101088.84;;;13.66;54.19
50250;BME280;36133;42.522;27.456;2023-03-22T09:48:28;100877.13;;;12.77;53.47
50250;BME280;36133;42.522;27.456;2023-03-22T09:50:59;101177.13;;;14.65;53.50
50250;BME280;36133;42.522;27.456;2023-03-22T09:53:27;101308.28;;;15.15;54.06
50250;BME280;36133;42.522;27.456;2023-03-22T09:56:16;100834.28;;;11.67;55.55
50250;BME280;36133;42.522;27.456;2023-03-22T10:01:36;101396.09;;;15.03;55.97
50250;BME280;36133;42.522;27.456;2023-03-22T10:04:35;101386.00;;;15.92;52.98
50250;BME280;36133;42.522;27.456;2023-03-22T10:07:16;101274.59;;;15.23;53.34
50250;BME280;36133;42.522;27.456;2023-03-22T10:09:56;101383.13;;;16.27;52.91
50250;BME280;36133;42.522;27.456;2023-03-22T10:12:27;100872.16;;;12.52;53.21
50250;BME280;36133;42.522;27.456;2023-03-22T10:15:14;101151.56;;;15.34;51.60
50250;BME280;36133;42.522;27.456;2023-03-22T10:17:54;101295.72;;;15.21;53.38
50250;BME280;36133;42.522;27.456;2023-03-22T10:20:37;101227.66;;;15.89;51.65
50250;BME280;36133;42.522;27.456;2023-03-22T10:23:09;101098.16;;;14.80;51.65
50250;BME280;36133;42.522;27.456;2023-03-22T10:25:40;100868.19;;;12.48;53.66
50250;BME280;36133;42.522;27.456;2023-03-22T10:28:20;100962.28;;;13.45;52.92
50250;BME280;36133;42.522;27.456;2023-03-22T10:30:53;101313.28;;;15.86;52.79
50250;BME280;36133;42.522;27.456;2023-03-22T10:33:34;101382.25;;;16.20;52.50
50250;BME280;36133;42.522;27.456;2023-03-22T10:36:03;101175.47;;;14.64;53.75
50250;BME280;36133;42.522;27.456;2023-03-22T10:38:33;101305.47;;;15.57;52.41
50250;BME280;36133;42.522;27.456;2023-03-22T10:41:01;100814.69;;;12.01;53.74
50250;BME280;36133;42.522;27.456;2023-03-22T10:43:38;101184.72;;;14.77;52.67
50250;BME280;36133;42.522;27.456;2023-03-22T10:46:15;101103.97;;;14.57;52.58
50250;BME280;36133;42.522;27.456;2023-03-22T10:49:04;100940.38;;;12.90;53.72
50250;BME280;36133;42.522;27.456;2023-03-22T10:51:41;101006.31;;;13.88;53.07
50250;BME280;36133;42.522;27.456;2023-03-22T10:54:14;101271.88;;;13.85;56.61
50250;BME280;36133;42.522;27.456;2023-03-22T10:56:40;101334.34;;;15.51;54.48
50250;BME280;36133;42.522;27.456;2023-03-22T10:59:06;101146.91;;;13.99;55.29
50250;BME280;36133;42.522;27.456;2023-03-22T11:01:35;100856.66;;;12.18;55.74
50250;BME280;36133;42.522;27.456;2023-03-22T11:04:21;101140.06;;;13.47;56.56
50250;BME280;36133;42.522;27.456;2023-03-22T11:07:12;100965.09;;;11.95;57.19
50250;BME280;36133;42.522;27.456;2023-03-22T11:09:41;101395.31;;;15.15;56.71
50250;BME280;36133;42.522;27.456;2023-03-22T11:12:24;101196.75;;;13.92;56.92
50250;BME280;36133;42.522;27.456;2023-03-22T11:14:51;100875.03;;;11.80;56.92
50250;BME280;36133;42.522;27.456;2023-03-22T11:17:23;101378.41;;;14.57;58.01
50250;BME280;36133;42.522;27.456;2023-03-22T11:19:56;101022.19;;;13.01;56.16
50250;BME280;36133;42.522;27.456;2023-03-22T11:22:52;101272.75;;;13.92;57.58
50250;BME280;36133;42.522;27.456;2023-03-22T11:25:28;100834.09;;;10.88;58.78
50250;BME280;36133;42.522;27.456;2023-03-22T11:31:09;101063.94;;;12.42;58.75
50250;BME280;36133;42.522;27.456;2023-03-22T11:33:37;100802.59;;;11.10;57.85
50250;BME280;36133;42.522;27.456;2023-03-22T11:36:14;100797.81;;;12.55;55.24
50250;BME280;36133;42.522;27.456;2023-03-22T11:38:46;100844.91;;;12.88;54.76
50250;BME280;36133;42.522;27.456;2023-03-22T11:41:44;101176.84;;;15.02;54.15
50250;BME280;36133;42.522;27.456;2023-03-22T11:44:18;101174.94;;;14.06;56.31
50250;BME280;36133;42.522;27.456;2023-03-22T11:47:03;100755.00;;;11.66;55.54
50250;BME280;36133;42.522;27.456;2023-03-22T11:49:58;101340.72;;;15.78;54.98
50250;BME280;36133;42.522;27.456;2023-03-22T11:52:31;100997.25;;;13.74;54.45
50250;BME280;36133;42.522;27.456;2023-03-22T11:55:00;100826.69;;;13.65;53.63
50250;BME280;36133;42.522;27.456;2023-03-22T11:57:53;101155.19;;;14.26;55.31
50250;BME280;36133;42.522;27.456;2023-03-22T12:00:28;101257.72;;;15.41;54.32
50250;BME280;36133;42.522;27.456;2023-03-22T12:03:28;101349.44;;;15.53;55.17
50250;BME280;36133;42.522;27.456;2023-03-22T12:06:00;101022.97;;;14.40;53.54
50250;BME280;36133;42.522;27.456;2023-03-22T12:09:04;101331.75;;;15.91;55.15
50250;BME280;36133;42.522;27.456;2023-03-22T12:11:57;101305.25;;;15.58;55.18
50250;BME280;36133;42.522;27.456;2023-03-22T12:21:46;101170.44;;;15.62;53.55
50250;BME280;36133;42.522;27.456;2023-03-22T12:24:28;101123.75;;;15.39;52.79
50250;BME280;36133;42.522;27.456;2023-03-22T12:26:59;101195.72;;;15.23;54.03
50250;BME280;36133;42.522;27.456;2023-03-22T12:29:44;100865.50;;;12.06;57.33
50250;BME280;36133;42.522;27.456;2023-03-22T12:32:18;101309.13;;;16.03;54.62
50250;BME280;36133;42.522;27.456;2023-03-22T12:34:51;100834.41;;;12.72;54.99
50250;BME280;36133;42.522;27.456;2023-03-22T12:37:32;101354.47;;;14.74;57.85
50250;BME280;36133;42.522;27.456;2023-03-22T12:46:02;101049.66;;;14.84;54.35
50250;BME280;36133;42.522;27.456;2023-03-22T12:51:45;100806.59;;;12.36;55.68
50250;BME280;36133;42.522;27.456;2023-03-22T12:57:16;101164.09;;;15.09;55.67
50250;BME280;36133;42.522;27.456;2023-03-22T12:59:48;101135.53;;;13.83;57.12
50250;BME280;36133;42.522;27.456;2023-03-22T13:02:24;101192.44;;;14.38;57.57
50250;BME280;36133;42.522;27.456;2023-03-22T13:04:57;100805.63;;;11.36;57.78
50250;BME280;36133;42.522;27.456;2023-03-22T13:07:36;101062.59;;;12.74;59.46
50250;BME280;36133;42.522;27.456;2023-03-22T13:13:13;100856.56;;;10.89;62.11
50250;BME280;36133;42.522;27.456;2023-03-22T13:24:32;100898.09;;;11.97;59.44
50250;BME280;36133;42.522;27.456;2023-03-22T13:27:06;100844.34;;;11.22;60.23
50250;BME280;36133;42.522;27.456;2023-03-22T13:29:48;100841.00;;;11.56;60.00
50250;BME280;36133;42.522;27.456;2023-03-22T13:39:24;100863.88;;;12.32;58.38
50250;BME280;36133;42.522;27.456;2023-03-22T13:45:27;101175.47;;;13.03;62.53
50250;BME280;36133;42.522;27.456;2023-03-22T13:48:08;101169.56;;;12.13;63.54
50250;BME280;36133;42.522;27.456;2023-03-22T13:50:38;101158.50;;;13.16;61.73
50250;BME280;36133;42.522;27.456;2023-03-22T13:53:26;100775.22;;;10.24;63.26
50250;BME280;36133;42.522;27.456;2023-03-22T13:56:02;100821.03;;;12.15;59.37
50250;BME280;36133;42.522;27.456;2023-03-22T14:01:04;100866.56;;;12.32;58.98
50250;BME280;36133;42.522;27.456;2023-03-22T14:03:36;101142.28;;;13.65;60.45
50250;BME280;36133;42.522;27.456;2023-03-22T14:06:23;100899.97;;;12.96;58.79
50250;BME280;36133;42.522;27.456;2023-03-22T14:09:08;100836.75;;;11.83;60.12
50250;BME280;36133;42.522;27.456;2023-03-22T14:14:42;100792.56;;;11.97;58.52
50250;BME280;36133;42.522;27.456;2023-03-22T14:20:22;100845.19;;;11.59;59.56
50250;BME280;36133;42.522;27.456;2023-03-22T14:23:05;100933.47;;;11.96;60.88
50250;BME280;36133;42.522;27.456;2023-03-22T14:26:17;101357.59;;;14.71;59.96
50250;BME280;36133;42.522;27.456;2023-03-22T14:29:05;101167.72;;;13.36;61.20
50250;BME280;36133;42.522;27.456;2023-03-22T14:38:34;101195.19;;;12.76;62.49
50250;BME280;36133;42.522;27.456;2023-03-22T14:44:04;101255.16;;;12.43;63.95
50250;BME280;36133;42.522;27.456;2023-03-22T14:46:33;100936.22;;;9.78;66.33
50250;BME280;36133;42.522;27.456;2023-03-22T14:49:02;101297.66;;;13.02;64.25
50250;BME280;36133;42.522;27.456;2023-03-22T14:51:31;101054.22;;;12.12;62.22